sensor_id;sensor_type;location;lat;lon;timestamp;P1;durP1;ratioP1;P2;durP2;ratioP2
45007;SDS011;30743;52.008;5.644;2024-01-15T00:00:54;4.60;;;0.80;;
45007;SDS011;30743;52.008;5.644;2024-01-15T00:03:20;2.92;;;0.90;;
45007;SDS011;30743;52.008;5.644;2024-01-15T00:05:46;5.82;;;1.20;;
45007;SDS011;30743;52.008;5.644;2024-01-15T00:08:11;7.78;;;1.27;;
45007;SDS011;30743;52.008;5.644;2024-01-15T00:10:37;4.78;;;0.77;;
45007;SDS011;30743;52.008;5.644;2024-01-15T00:13:03;3.63;;;0.75;;
45007;SDS011;30743;52.008;5.644;2024-01-15T00:15:29;5.88;;;0.88;;
45007;SDS011;30743;52.008;5.644;2024-01-15T00:17:55;4.53;;;1.35;;
45007;SDS011;30743;52.008;5.644;2024-01-15T00:20:21;10.63;;;1.20;;
45007;SDS011;30743;52.008;5.644;2024-01-15T00:22:46;2.33;;;0.80;;
45007;SDS011;30743;52.008;5.644;2024-01-15T00:25:12;3.53;;;1.17;;
45007;SDS011;30743;52.008;5.644;2024-01-15T00:27:38;5.40;;;1.05;;
45007;SDS011;30743;52.008;5.644;2024-01-15T00:30:03;7.65;;;0.88;;
45007;SDS011;30743;52.008;5.644;2024-01-15T00:32:30;6.25;;;1.00;;
45007;SDS011;30743;52.008;5.644;2024-01-15T00:34:55;5.03;;;1.20;;
45007;SDS011;30743;52.008;5.644;2024-01-15T00:37:21;4.95;;;1.23;;
45007;SDS011;30743;52.008;5.644;2024-01-15T00:39:46;6.72;;;1.13;;
45007;SDS011;30743;52.008;5.644;2024-01-15T00:42:12;6.07;;;1.08;;
45007;SDS011;30743;52.008;5.644;2024-01-15T00:44:38;6.82;;;1.27;;
45007;SDS011;30743;52.008;5.644;2024-01-15T00:47:03;8.07;;;1.05;;
45007;SDS011;30743;52.008;5.644;2024-01-15T00:49:29;5.00;;;1.23;;
45007;SDS011;30743;52.008;5.644;2024-01-15T00:51:54;4.53;;;1.00;;
45007;SDS011;30743;52.008;5.644;2024-01-15T00:54:20;2.85;;;0.90;;
45007;SDS011;30743;52.008;5.644;2024-01-15T00:56:46;2.95;;;0.73;;
45007;SDS011;30743;52.008;5.644;2024-01-15T00:59:11;3.28;;;0.60;;
45007;SDS011;30743;52.008;5.644;2024-01-15T01:01:40;5.60;;;1.23;;
45007;SDS011;30743;52.008;5.644;2024-01-15T01:04:08;2.42;;;0.70;;
45007;SDS011;30743;52.008;5.644;2024-01-15T01:06:36;7.83;;;1.37;;
45007;SDS011;30743;52.008;5.644;2024-01-15T01:09:02;2.97;;;0.95;;
45007;SDS011;30743;52.008;5.644;2024-01-15T01:11:27;4.72;;;0.98;;
45007;SDS011;30743;52.008;5.644;2024-01-15T01:13:53;3.95;;;1.13;;
45007;SDS011;30743;52.008;5.644;2024-01-15T01:16:18;6.47;;;0.80;;
45007;SDS011;30743;52.008;5.644;2024-01-15T01:18:44;9.75;;;1.10;;
45007;SDS011;30743;52.008;5.644;2024-01-15T01:21:09;3.35;;;0.90;;
45007;SDS011;30743;52.008;5.644;2024-01-15T01:23:35;2.67;;;1.00;;
45007;SDS011;30743;52.008;5.644;2024-01-15T01:26:01;4.68;;;1.30;;
45007;SDS011;30743;52.008;5.644;2024-01-15T01:28:27;4.50;;;0.93;;
45007;SDS011;30743;52.008;5.644;2024-01-15T01:30:53;4.15;;;1.02;;
45007;SDS011;30743;52.008;5.644;2024-01-15T01:33:18;4.47;;;1.00;;
45007;SDS011;30743;52.008;5.644;2024-01-15T01:35:44;7.70;;;1.45;;
45007;SDS011;30743;52.008;5.644;2024-01-15T01:38:10;6.55;;;2.22;;
45007;SDS011;30743;52.008;5.644;2024-01-15T01:40:36;4.85;;;0.93;;
45007;SDS011;30743;52.008;5.644;2024-01-15T01:43:02;5.57;;;1.17;;
45007;SDS011;30743;52.008;5.644;2024-01-15T01:45:29;6.90;;;1.35;;
45007;SDS011;30743;52.008;5.644;2024-01-15T01:47:55;3.65;;;1.23;;
45007;SDS011;30743;52.008;5.644;2024-01-15T01:50:20;4.15;;;1.25;;
45007;SDS011;30743;52.008;5.644;2024-01-15T01:52:46;4.32;;;1.00;;
45007;SDS011;30743;52.008;5.644;2024-01-15T01:55:13;4.65;;;0.75;;
45007;SDS011;30743;52.008;5.644;2024-01-15T01:57:39;5.00;;;1.00;;
45007;SDS011;30743;52.008;5.644;2024-01-15T02:00:06;6.07;;;1.23;;
45007;SDS011;30743;52.008;5.644;2024-01-15T02:02:32;5.07;;;0.80;;
45007;SDS011;30743;52.008;5.644;2024-01-15T02:04:58;5.20;;;0.82;;
45007;SDS011;30743;52.008;5.644;2024-01-15T02:07:24;6.00;;;1.20;;
45007;SDS011;30743;52.008;5.644;2024-01-15T02:09:50;5.75;;;0.95;;
45007;SDS011;30743;52.008;5.644;2024-01-15T02:12:16;9.18;;;1.10;;
45007;SDS011;30743;52.008;5.644;2024-01-15T02:14:42;5.18;;;0.85;;
45007;SDS011;30743;52.008;5.644;2024-01-15T02:17:07;4.97;;;0.82;;
45007;SDS011;30743;52.008;5.644;2024-01-15T02:19:33;8.27;;;1.50;;
45007;SDS011;30743;52.008;5.644;2024-01-15T02:21:58;8.60;;;1.40;;
45007;SDS011;30743;52.008;5.644;2024-01-15T02:24:24;4.47;;;0.80;;
45007;SDS011;30743;52.008;5.644;2024-01-15T02:26:50;4.85;;;0.90;;
45007;SDS011;30743;52.008;5.644;2024-01-15T02:29:16;6.47;;;1.00;;
45007;SDS011;30743;52.008;5.644;2024-01-15T02:31:42;6.43;;;1.35;;
45007;SDS011;30743;52.008;5.644;2024-01-15T02:34:08;7.15;;;1.75;;
45007;SDS011;30743;52.008;5.644;2024-01-15T02:36:34;6.47;;;1.02;;
45007;SDS011;30743;52.008;5.644;2024-01-15T02:38:59;7.18;;;1.40;;
45007;SDS011;30743;52.008;5.644;2024-01-15T02:41:25;9.27;;;1.02;;
45007;SDS011;30743;52.008;5.644;2024-01-15T02:43:50;6.53;;;1.35;;
45007;SDS011;30743;52.008;5.644;2024-01-15T02:46:16;11.23;;;1.58;;
45007;SDS011;30743;52.008;5.644;2024-01-15T02:48:41;5.07;;;0.77;;
45007;SDS011;30743;52.008;5.644;2024-01-15T02:51:07;5.15;;;0.93;;
45007;SDS011;30743;52.008;5.644;2024-01-15T02:53:33;6.15;;;1.42;;
45007;SDS011;30743;52.008;5.644;2024-01-15T02:55:58;9.15;;;0.95;;
45007;SDS011;30743;52.008;5.644;2024-01-15T02:58:24;5.47;;;1.25;;
45007;SDS011;30743;52.008;5.644;2024-01-15T03:00:50;6.10;;;0.90;;
45007;SDS011;30743;52.008;5.644;2024-01-15T03:03:15;5.65;;;1.40;;
45007;SDS011;30743;52.008;5.644;2024-01-15T03:05:41;5.05;;;0.90;;
45007;SDS011;30743;52.008;5.644;2024-01-15T03:08:06;3.58;;;1.10;;
45007;SDS011;30743;52.008;5.644;2024-01-15T03:10:32;3.90;;;0.73;;
45007;SDS011;30743;52.008;5.644;2024-01-15T03:12:57;2.15;;;0.57;;
45007;SDS011;30743;52.008;5.644;2024-01-15T03:15:23;6.13;;;0.90;;
45007;SDS011;30743;52.008;5.644;2024-01-15T03:17:49;5.18;;;0.70;;
45007;SDS011;30743;52.008;5.644;2024-01-15T03:20:14;5.50;;;0.60;;
45007;SDS011;30743;52.008;5.644;2024-01-15T03:22:40;2.83;;;0.70;;
45007;SDS011;30743;52.008;5.644;2024-01-15T03:25:06;4.85;;;0.50;;
45007;SDS011;30743;52.008;5.644;2024-01-15T03:27:31;6.57;;;0.93;;
45007;SDS011;30743;52.008;5.644;2024-01-15T03:29:57;3.58;;;0.73;;
45007;SDS011;30743;52.008;5.644;2024-01-15T03:32:22;3.97;;;0.90;;
45007;SDS011;30743;52.008;5.644;2024-01-15T03:34:48;3.28;;;0.60;;
45007;SDS011;30743;52.008;5.644;2024-01-15T03:37:14;2.67;;;0.70;;
45007;SDS011;30743;52.008;5.644;2024-01-15T03:39:40;2.45;;;0.73;;
45007;SDS011;30743;52.008;5.644;2024-01-15T03:42:06;6.85;;;0.63;;
45007;SDS011;30743;52.008;5.644;2024-01-15T03:44:32;5.32;;;1.02;;
45007;SDS011;30743;52.008;5.644;2024-01-15T03:46:57;4.53;;;0.98;;
45007;SDS011;30743;52.008;5.644;2024-01-15T03:49:23;2.95;;;0.80;;
45007;SDS011;30743;52.008;5.644;2024-01-15T03:51:49;3.80;;;0.82;;
45007;SDS011;30743;52.008;5.644;2024-01-15T03:54:14;5.03;;;1.13;;
45007;SDS011;30743;52.008;5.644;2024-01-15T03:56:40;1.67;;;0.63;;
45007;SDS011;30743;52.008;5.644;2024-01-15T03:59:05;8.88;;;1.00;;
45007;SDS011;30743;52.008;5.644;2024-01-15T04:01:31;7.20;;;1.15;;
45007;SDS011;30743;52.008;5.644;2024-01-15T04:03:57;2.70;;;0.77;;
45007;SDS011;30743;52.008;5.644;2024-01-15T04:06:22;4.25;;;1.15;;
45007;SDS011;30743;52.008;5.644;2024-01-15T04:08:48;9.00;;;1.05;;
45007;SDS011;30743;52.008;5.644;2024-01-15T04:11:13;6.57;;;1.10;;
45007;SDS011;30743;52.008;5.644;2024-01-15T04:13:39;4.20;;;0.98;;
45007;SDS011;30743;52.008;5.644;2024-01-15T04:16:04;4.68;;;0.80;;
45007;SDS011;30743;52.008;5.644;2024-01-15T04:18:30;4.85;;;0.63;;
45007;SDS011;30743;52.008;5.644;2024-01-15T04:20:56;4.03;;;0.90;;
45007;SDS011;30743;52.008;5.644;2024-01-15T04:23:21;4.72;;;0.88;;
45007;SDS011;30743;52.008;5.644;2024-01-15T04:25:47;4.45;;;1.55;;
45007;SDS011;30743;52.008;5.644;2024-01-15T04:28:13;4.85;;;0.65;;
45007;SDS011;30743;52.008;5.644;2024-01-15T04:30:38;4.38;;;0.85;;
45007;SDS011;30743;52.008;5.644;2024-01-15T04:33:04;5.05;;;0.77;;
45007;SDS011;30743;52.008;5.644;2024-01-15T04:35:30;2.65;;;0.90;;
45007;SDS011;30743;52.008;5.644;2024-01-15T04:37:56;2.17;;;0.50;;
45007;SDS011;30743;52.008;5.644;2024-01-15T04:40:22;2.30;;;0.73;;
45007;SDS011;30743;52.008;5.644;2024-01-15T04:42:47;3.22;;;0.60;;
45007;SDS011;30743;52.008;5.644;2024-01-15T04:45:13;4.63;;;0.70;;
45007;SDS011;30743;52.008;5.644;2024-01-15T04:47:38;1.70;;;1.00;;
45007;SDS011;30743;52.008;5.644;2024-01-15T04:50:04;7.18;;;0.85;;
45007;SDS011;30743;52.008;5.644;2024-01-15T04:52:30;1.83;;;0.52;;
45007;SDS011;30743;52.008;5.644;2024-01-15T04:54:56;6.00;;;0.90;;
45007;SDS011;30743;52.008;5.644;2024-01-15T04:57:22;3.90;;;1.13;;
45007;SDS011;30743;52.008;5.644;2024-01-15T04:59:47;6.22;;;1.15;;
45007;SDS011;30743;52.008;5.644;2024-01-15T05:02:13;4.35;;;1.00;;
45007;SDS011;30743;52.008;5.644;2024-01-15T05:04:39;6.43;;;1.02;;
45007;SDS011;30743;52.008;5.644;2024-01-15T05:07:04;2.47;;;0.63;;
45007;SDS011;30743;52.008;5.644;2024-01-15T05:09:30;2.25;;;0.75;;
45007;SDS011;30743;52.008;5.644;2024-01-15T05:11:56;7.25;;;0.90;;
45007;SDS011;30743;52.008;5.644;2024-01-15T05:14:21;6.63;;;0.98;;
45007;SDS011;30743;52.008;5.644;2024-01-15T05:16:47;5.15;;;0.82;;
45007;SDS011;30743;52.008;5.644;2024-01-15T05:19:13;5.45;;;1.00;;
45007;SDS011;30743;52.008;5.644;2024-01-15T05:21:39;4.22;;;0.80;;
45007;SDS011;30743;52.008;5.644;2024-01-15T05:24:05;7.32;;;1.38;;
45007;SDS011;30743;52.008;5.644;2024-01-15T05:26:30;3.45;;;0.80;;
45007;SDS011;30743;52.008;5.644;2024-01-15T05:28:56;4.25;;;0.70;;
45007;SDS011;30743;52.008;5.644;2024-01-15T05:31:22;6.40;;;1.10;;
45007;SDS011;30743;52.008;5.644;2024-01-15T05:33:48;5.80;;;1.10;;
45007;SDS011;30743;52.008;5.644;2024-01-15T05:36:13;2.17;;;0.60;;
45007;SDS011;30743;52.008;5.644;2024-01-15T05:38:39;3.35;;;0.73;;
45007;SDS011;30743;52.008;5.644;2024-01-15T05:41:05;7.13;;;1.10;;
45007;SDS011;30743;52.008;5.644;2024-01-15T05:43:30;1.90;;;0.93;;
45007;SDS011;30743;52.008;5.644;2024-01-15T05:45:56;7.78;;;1.10;;
45007;SDS011;30743;52.008;5.644;2024-01-15T05:48:23;2.50;;;0.95;;
45007;SDS011;30743;52.008;5.644;2024-01-15T05:50:48;3.15;;;0.63;;
45007;SDS011;30743;52.008;5.644;2024-01-15T05:53:14;4.80;;;0.80;;
45007;SDS011;30743;52.008;5.644;2024-01-15T05:55:40;4.10;;;0.77;;
45007;SDS011;30743;52.008;5.644;2024-01-15T05:58:05;2.22;;;0.55;;
45007;SDS011;30743;52.008;5.644;2024-01-15T06:00:31;2.13;;;0.70;;
45007;SDS011;30743;52.008;5.644;2024-01-15T06:02:58;2.00;;;0.80;;
45007;SDS011;30743;52.008;5.644;2024-01-15T06:05:24;2.45;;;1.00;;
45007;SDS011;30743;52.008;5.644;2024-01-15T06:07:50;2.58;;;0.70;;
45007;SDS011;30743;52.008;5.644;2024-01-15T06:10:15;2.50;;;0.93;;
45007;SDS011;30743;52.008;5.644;2024-01-15T06:12:42;4.55;;;0.98;;
45007;SDS011;30743;52.008;5.644;2024-01-15T06:15:08;3.00;;;0.90;;
45007;SDS011;30743;52.008;5.644;2024-01-15T06:17:34;4.85;;;1.00;;
45007;SDS011;30743;52.008;5.644;2024-01-15T06:19:59;3.97;;;0.90;;
45007;SDS011;30743;52.008;5.644;2024-01-15T06:22:25;4.07;;;0.85;;
45007;SDS011;30743;52.008;5.644;2024-01-15T06:24:51;7.35;;;0.90;;
45007;SDS011;30743;52.008;5.644;2024-01-15T06:27:16;3.38;;;0.93;;
45007;SDS011;30743;52.008;5.644;2024-01-15T06:29:44;5.47;;;0.98;;
45007;SDS011;30743;52.008;5.644;2024-01-15T06:32:12;1.92;;;0.70;;
45007;SDS011;30743;52.008;5.644;2024-01-15T06:34:37;2.33;;;1.00;;
45007;SDS011;30743;52.008;5.644;2024-01-15T06:37:03;3.25;;;1.35;;
45007;SDS011;30743;52.008;5.644;2024-01-15T06:39:29;4.90;;;1.15;;
45007;SDS011;30743;52.008;5.644;2024-01-15T06:41:54;5.80;;;0.93;;
45007;SDS011;30743;52.008;5.644;2024-01-15T06:44:20;2.67;;;1.02;;
45007;SDS011;30743;52.008;5.644;2024-01-15T06:46:46;2.08;;;1.10;;
45007;SDS011;30743;52.008;5.644;2024-01-15T06:49:12;1.48;;;0.88;;
45007;SDS011;30743;52.008;5.644;2024-01-15T06:51:38;1.80;;;1.08;;
45007;SDS011;30743;52.008;5.644;2024-01-15T06:54:04;2.58;;;1.30;;
45007;SDS011;30743;52.008;5.644;2024-01-15T06:56:30;1.98;;;1.20;;
45007;SDS011;30743;52.008;5.644;2024-01-15T06:58:56;2.15;;;1.40;;
45007;SDS011;30743;52.008;5.644;2024-01-15T07:01:22;2.08;;;1.30;;
45007;SDS011;30743;52.008;5.644;2024-01-15T07:03:48;2.05;;;1.25;;
45007;SDS011;30743;52.008;5.644;2024-01-15T07:06:13;3.60;;;1.20;;
45007;SDS011;30743;52.008;5.644;2024-01-15T07:08:39;1.48;;;1.00;;
45007;SDS011;30743;52.008;5.644;2024-01-15T07:11:05;2.38;;;1.27;;
45007;SDS011;30743;52.008;5.644;2024-01-15T07:13:31;1.58;;;1.17;;
45007;SDS011;30743;52.008;5.644;2024-01-15T07:15:57;1.30;;;1.13;;
45007;SDS011;30743;52.008;5.644;2024-01-15T07:18:23;1.45;;;1.02;;
45007;SDS011;30743;52.008;5.644;2024-01-15T07:20:49;2.60;;;1.23;;
45007;SDS011;30743;52.008;5.644;2024-01-15T07:23:15;1.55;;;1.13;;
45007;SDS011;30743;52.008;5.644;2024-01-15T07:25:41;2.22;;;1.35;;
45007;SDS011;30743;52.008;5.644;2024-01-15T07:28:06;2.47;;;1.30;;
45007;SDS011;30743;52.008;5.644;2024-01-15T07:30:32;3.38;;;1.73;;
45007;SDS011;30743;52.008;5.644;2024-01-15T07:32:58;5.35;;;1.75;;
45007;SDS011;30743;52.008;5.644;2024-01-15T07:35:23;3.00;;;2.00;;
45007;SDS011;30743;52.008;5.644;2024-01-15T07:37:49;2.30;;;1.70;;
45007;SDS011;30743;52.008;5.644;2024-01-15T07:40:14;2.22;;;1.80;;
45007;SDS011;30743;52.008;5.644;2024-01-15T07:42:41;2.33;;;1.50;;
45007;SDS011;30743;52.008;5.644;2024-01-15T07:45:07;2.45;;;1.77;;
45007;SDS011;30743;52.008;5.644;2024-01-15T07:47:34;3.40;;;2.20;;
45007;SDS011;30743;52.008;5.644;2024-01-15T07:49:59;2.63;;;1.95;;
45007;SDS011;30743;52.008;5.644;2024-01-15T07:52:25;2.80;;;1.70;;
45007;SDS011;30743;52.008;5.644;2024-01-15T07:54:51;4.50;;;1.75;;
45007;SDS011;30743;52.008;5.644;2024-01-15T07:57:16;2.45;;;1.30;;
45007;SDS011;30743;52.008;5.644;2024-01-15T07:59:42;1.67;;;1.40;;
45007;SDS011;30743;52.008;5.644;2024-01-15T08:02:08;2.22;;;1.08;;
45007;SDS011;30743;52.008;5.644;2024-01-15T08:04:33;2.92;;;1.40;;
45007;SDS011;30743;52.008;5.644;2024-01-15T08:06:59;3.00;;;1.60;;
45007;SDS011;30743;52.008;5.644;2024-01-15T08:09:24;3.17;;;1.50;;
45007;SDS011;30743;52.008;5.644;2024-01-15T08:11:50;4.05;;;1.40;;
45007;SDS011;30743;52.008;5.644;2024-01-15T08:14:17;3.38;;;1.55;;
45007;SDS011;30743;52.008;5.644;2024-01-15T08:16:43;4.13;;;1.35;;
45007;SDS011;30743;52.008;5.644;2024-01-15T08:19:08;4.97;;;1.85;;
45007;SDS011;30743;52.008;5.644;2024-01-15T08:21:34;3.33;;;1.80;;
45007;SDS011;30743;52.008;5.644;2024-01-15T08:24:00;4.25;;;2.08;;
45007;SDS011;30743;52.008;5.644;2024-01-15T08:26:30;3.42;;;2.08;;
45007;SDS011;30743;52.008;5.644;2024-01-15T08:28:57;2.13;;;1.63;;
45007;SDS011;30743;52.008;5.644;2024-01-15T08:31:23;4.38;;;1.88;;
45007;SDS011;30743;52.008;5.644;2024-01-15T08:33:49;3.38;;;1.90;;
45007;SDS011;30743;52.008;5.644;2024-01-15T08:36:14;3.08;;;1.95;;
45007;SDS011;30743;52.008;5.644;2024-01-15T08:38:40;2.53;;;1.73;;
45007;SDS011;30743;52.008;5.644;2024-01-15T08:41:05;4.10;;;1.90;;
45007;SDS011;30743;52.008;5.644;2024-01-15T08:43:33;4.78;;;2.10;;
45007;SDS011;30743;52.008;5.644;2024-01-15T08:45:59;2.58;;;1.58;;
45007;SDS011;30743;52.008;5.644;2024-01-15T08:48:25;3.20;;;1.60;;
45007;SDS011;30743;52.008;5.644;2024-01-15T08:50:54;3.23;;;1.50;;
45007;SDS011;30743;52.008;5.644;2024-01-15T08:53:20;6.25;;;1.58;;
45007;SDS011;30743;52.008;5.644;2024-01-15T08:55:46;6.78;;;1.90;;
45007;SDS011;30743;52.008;5.644;2024-01-15T08:58:12;4.15;;;1.88;;
45007;SDS011;30743;52.008;5.644;2024-01-15T09:00:38;4.57;;;1.60;;
45007;SDS011;30743;52.008;5.644;2024-01-15T09:03:04;5.35;;;2.33;;
45007;SDS011;30743;52.008;5.644;2024-01-15T09:05:30;5.07;;;2.22;;
45007;SDS011;30743;52.008;5.644;2024-01-15T09:07:55;5.57;;;2.00;;
45007;SDS011;30743;52.008;5.644;2024-01-15T09:10:21;7.05;;;2.17;;
45007;SDS011;30743;52.008;5.644;2024-01-15T09:12:47;2.90;;;1.70;;
45007;SDS011;30743;52.008;5.644;2024-01-15T09:15:14;3.70;;;1.98;;
45007;SDS011;30743;52.008;5.644;2024-01-15T09:17:39;4.03;;;1.90;;
45007;SDS011;30743;52.008;5.644;2024-01-15T09:20:05;2.70;;;1.92;;
45007;SDS011;30743;52.008;5.644;2024-01-15T09:22:31;4.38;;;1.73;;
45007;SDS011;30743;52.008;5.644;2024-01-15T09:24:58;5.57;;;2.20;;
45007;SDS011;30743;52.008;5.644;2024-01-15T09:27:23;2.53;;;1.13;;
45007;SDS011;30743;52.008;5.644;2024-01-15T09:29:51;2.97;;;0.98;;
45007;SDS011;30743;52.008;5.644;2024-01-15T09:32:19;2.37;;;1.10;;
45007;SDS011;30743;52.008;5.644;2024-01-15T09:34:45;4.88;;;1.10;;
45007;SDS011;30743;52.008;5.644;2024-01-15T09:37:11;3.53;;;0.80;;
45007;SDS011;30743;52.008;5.644;2024-01-15T09:39:37;6.72;;;0.85;;
45007;SDS011;30743;52.008;5.644;2024-01-15T09:42:03;1.67;;;0.75;;
45007;SDS011;30743;52.008;5.644;2024-01-15T09:44:29;3.95;;;0.90;;
45007;SDS011;30743;52.008;5.644;2024-01-15T09:46:56;2.45;;;0.77;;
45007;SDS011;30743;52.008;5.644;2024-01-15T09:49:23;1.40;;;0.60;;
45007;SDS011;30743;52.008;5.644;2024-01-15T09:51:49;2.13;;;0.63;;
45007;SDS011;30743;52.008;5.644;2024-01-15T09:54:15;0.98;;;0.50;;
45007;SDS011;30743;52.008;5.644;2024-01-15T09:56:42;0.60;;;0.43;;
45007;SDS011;30743;52.008;5.644;2024-01-15T09:59:11;1.90;;;0.57;;
45007;SDS011;30743;52.008;5.644;2024-01-15T10:01:42;0.57;;;0.20;;
45007;SDS011;30743;52.008;5.644;2024-01-15T10:04:09;1.88;;;0.40;;
45007;SDS011;30743;52.008;5.644;2024-01-15T10:06:37;1.90;;;0.47;;
45007;SDS011;30743;52.008;5.644;2024-01-15T10:09:04;1.83;;;0.68;;
45007;SDS011;30743;52.008;5.644;2024-01-15T10:11:30;1.08;;;0.57;;
45007;SDS011;30743;52.008;5.644;2024-01-15T10:13:57;1.75;;;0.50;;
45007;SDS011;30743;52.008;5.644;2024-01-15T10:16:23;1.13;;;0.40;;
45007;SDS011;30743;52.008;5.644;2024-01-15T10:18:49;3.53;;;0.70;;
45007;SDS011;30743;52.008;5.644;2024-01-15T10:21:14;1.45;;;0.60;;
45007;SDS011;30743;52.008;5.644;2024-01-15T10:23:41;2.08;;;0.60;;
45007;SDS011;30743;52.008;5.644;2024-01-15T10:26:06;4.20;;;0.80;;
45007;SDS011;30743;52.008;5.644;2024-01-15T10:28:34;3.00;;;1.10;;
45007;SDS011;30743;52.008;5.644;2024-01-15T10:31:00;3.65;;;1.40;;
45007;SDS011;30743;52.008;5.644;2024-01-15T10:33:25;3.97;;;0.98;;
45007;SDS011;30743;52.008;5.644;2024-01-15T10:35:55;1.85;;;0.80;;
45007;SDS011;30743;52.008;5.644;2024-01-15T10:38:21;3.65;;;1.00;;
45007;SDS011;30743;52.008;5.644;2024-01-15T10:40:51;3.15;;;1.17;;
45007;SDS011;30743;52.008;5.644;2024-01-15T10:43:20;2.92;;;0.90;;
45007;SDS011;30743;52.008;5.644;2024-01-15T10:45:46;4.20;;;1.27;;
45007;SDS011;30743;52.008;5.644;2024-01-15T10:48:13;4.95;;;0.95;;
45007;SDS011;30743;52.008;5.644;2024-01-15T10:50:41;2.83;;;0.88;;
45007;SDS011;30743;52.008;5.644;2024-01-15T10:53:06;1.67;;;0.80;;
45007;SDS011;30743;52.008;5.644;2024-01-15T10:55:35;3.78;;;1.15;;
45007;SDS011;30743;52.008;5.644;2024-01-15T10:58:02;2.22;;;0.80;;
45007;SDS011;30743;52.008;5.644;2024-01-15T11:00:28;6.10;;;0.90;;
45007;SDS011;30743;52.008;5.644;2024-01-15T11:02:54;3.13;;;0.88;;
45007;SDS011;30743;52.008;5.644;2024-01-15T11:05:21;3.40;;;1.15;;
45007;SDS011;30743;52.008;5.644;2024-01-15T11:07:50;1.60;;;0.98;;
45007;SDS011;30743;52.008;5.644;2024-01-15T11:10:37;3.00;;;1.27;;
45007;SDS011;30743;52.008;5.644;2024-01-15T11:13:07;4.80;;;1.30;;
45007;SDS011;30743;52.008;5.644;2024-01-15T11:15:45;3.70;;;1.00;;
45007;SDS011;30743;52.008;5.644;2024-01-15T11:18:22;2.45;;;0.70;;
45007;SDS011;30743;52.008;5.644;2024-01-15T11:23:45;4.80;;;1.23;;
45007;SDS011;30743;52.008;5.644;2024-01-15T11:29:01;2.78;;;1.00;;
45007;SDS011;30743;52.008;5.644;2024-01-15T11:34:04;3.83;;;0.70;;
45007;SDS011;30743;52.008;5.644;2024-01-15T11:39:44;3.72;;;0.70;;
45007;SDS011;30743;52.008;5.644;2024-01-15T11:42:07;3.33;;;0.60;;
45007;SDS011;30743;52.008;5.644;2024-01-15T11:44:34;4.93;;;0.60;;
45007;SDS011;30743;52.008;5.644;2024-01-15T11:47:01;2.75;;;0.80;;
45007;SDS011;30743;52.008;5.644;2024-01-15T11:51:59;5.07;;;0.80;;
45007;SDS011;30743;52.008;5.644;2024-01-15T11:54:27;4.45;;;0.82;;
45007;SDS011;30743;52.008;5.644;2024-01-15T11:56:58;6.10;;;0.93;;
45007;SDS011;30743;52.008;5.644;2024-01-15T11:59:29;2.42;;;0.70;;
45007;SDS011;30743;52.008;5.644;2024-01-15T12:01:54;4.05;;;0.60;;
45007;SDS011;30743;52.008;5.644;2024-01-15T12:04:21;1.85;;;0.40;;
45007;SDS011;30743;52.008;5.644;2024-01-15T12:06:46;0.93;;;0.38;;
45007;SDS011;30743;52.008;5.644;2024-01-15T12:09:12;1.45;;;0.60;;
45007;SDS011;30743;52.008;5.644;2024-01-15T12:11:37;2.00;;;0.60;;
45007;SDS011;30743;52.008;5.644;2024-01-15T12:14:07;1.48;;;0.65;;
45007;SDS011;30743;52.008;5.644;2024-01-15T12:16:32;2.63;;;0.60;;
45007;SDS011;30743;52.008;5.644;2024-01-15T12:18:59;3.60;;;0.77;;
45007;SDS011;30743;52.008;5.644;2024-01-15T12:21:26;2.25;;;0.73;;
45007;SDS011;30743;52.008;5.644;2024-01-15T12:23:51;1.40;;;0.50;;
45007;SDS011;30743;52.008;5.644;2024-01-15T12:26:19;2.13;;;0.40;;
45007;SDS011;30743;52.008;5.644;2024-01-15T12:28:45;0.90;;;0.47;;
45007;SDS011;30743;52.008;5.644;2024-01-15T12:31:10;2.17;;;0.50;;
45007;SDS011;30743;52.008;5.644;2024-01-15T12:33:36;3.13;;;0.70;;
45007;SDS011;30743;52.008;5.644;2024-01-15T12:36:02;3.60;;;0.35;;
45007;SDS011;30743;52.008;5.644;2024-01-15T12:38:28;2.03;;;0.73;;
45007;SDS011;30743;52.008;5.644;2024-01-15T12:40:54;2.00;;;0.35;;
45007;SDS011;30743;52.008;5.644;2024-01-15T12:43:19;1.27;;;0.45;;
45007;SDS011;30743;52.008;5.644;2024-01-15T12:45:45;3.78;;;0.68;;
45007;SDS011;30743;52.008;5.644;2024-01-15T12:48:11;1.10;;;0.38;;
45007;SDS011;30743;52.008;5.644;2024-01-15T12:50:42;4.75;;;0.73;;
45007;SDS011;30743;52.008;5.644;2024-01-15T12:53:08;2.00;;;0.50;;
45007;SDS011;30743;52.008;5.644;2024-01-15T12:55:34;1.33;;;0.60;;
45007;SDS011;30743;52.008;5.644;2024-01-15T12:57:59;3.95;;;0.75;;
45007;SDS011;30743;52.008;5.644;2024-01-15T13:00:25;1.88;;;0.40;;
45007;SDS011;30743;52.008;5.644;2024-01-15T13:02:51;3.47;;;0.50;;
45007;SDS011;30743;52.008;5.644;2024-01-15T13:05:16;2.75;;;0.70;;
45007;SDS011;30743;52.008;5.644;2024-01-15T13:07:42;3.42;;;0.38;;
45007;SDS011;30743;52.008;5.644;2024-01-15T13:10:08;2.28;;;0.47;;
45007;SDS011;30743;52.008;5.644;2024-01-15T13:12:34;3.53;;;1.00;;
45007;SDS011;30743;52.008;5.644;2024-01-15T13:15:00;1.88;;;0.30;;
45007;SDS011;30743;52.008;5.644;2024-01-15T13:17:28;2.30;;;0.60;;
45007;SDS011;30743;52.008;5.644;2024-01-15T13:19:54;2.75;;;0.70;;
45007;SDS011;30743;52.008;5.644;2024-01-15T13:22:19;3.28;;;1.15;;
45007;SDS011;30743;52.008;5.644;2024-01-15T13:24:45;0.90;;;0.38;;
45007;SDS011;30743;52.008;5.644;2024-01-15T13:27:11;7.10;;;0.68;;
45007;SDS011;30743;52.008;5.644;2024-01-15T13:29:36;2.55;;;0.60;;
45007;SDS011;30743;52.008;5.644;2024-01-15T13:32:02;2.05;;;0.50;;
45007;SDS011;30743;52.008;5.644;2024-01-15T13:34:29;1.40;;;0.50;;
45007;SDS011;30743;52.008;5.644;2024-01-15T13:36:55;4.03;;;0.65;;
45007;SDS011;30743;52.008;5.644;2024-01-15T13:39:22;2.28;;;0.68;;
45007;SDS011;30743;52.008;5.644;2024-01-15T13:41:48;4.10;;;0.75;;
45007;SDS011;30743;52.008;5.644;2024-01-15T13:44:14;2.80;;;0.70;;
45007;SDS011;30743;52.008;5.644;2024-01-15T13:46:40;2.78;;;0.75;;
45007;SDS011;30743;52.008;5.644;2024-01-15T13:49:06;3.30;;;0.85;;
45007;SDS011;30743;52.008;5.644;2024-01-15T13:51:32;1.67;;;0.73;;
45007;SDS011;30743;52.008;5.644;2024-01-15T13:53:58;3.17;;;0.60;;
45007;SDS011;30743;52.008;5.644;2024-01-15T13:56:23;2.97;;;0.60;;
45007;SDS011;30743;52.008;5.644;2024-01-15T13:58:49;2.40;;;0.60;;
45007;SDS011;30743;52.008;5.644;2024-01-15T14:01:15;1.83;;;0.57;;
45007;SDS011;30743;52.008;5.644;2024-01-15T14:03:42;2.00;;;0.47;;
45007;SDS011;30743;52.008;5.644;2024-01-15T14:06:08;3.15;;;1.02;;
45007;SDS011;30743;52.008;5.644;2024-01-15T14:08:37;1.98;;;0.50;;
45007;SDS011;30743;52.008;5.644;2024-01-15T14:11:03;2.22;;;0.50;;
45007;SDS011;30743;52.008;5.644;2024-01-15T14:13:30;3.25;;;0.63;;
45007;SDS011;30743;52.008;5.644;2024-01-15T14:15:57;1.45;;;0.70;;
45007;SDS011;30743;52.008;5.644;2024-01-15T14:18:22;2.80;;;0.73;;
45007;SDS011;30743;52.008;5.644;2024-01-15T14:20:48;4.00;;;0.95;;
45007;SDS011;30743;52.008;5.644;2024-01-15T14:23:13;3.83;;;1.15;;
45007;SDS011;30743;52.008;5.644;2024-01-15T14:25:39;3.35;;;1.00;;
45007;SDS011;30743;52.008;5.644;2024-01-15T14:28:05;1.35;;;0.73;;
45007;SDS011;30743;52.008;5.644;2024-01-15T14:30:31;3.20;;;0.82;;
45007;SDS011;30743;52.008;5.644;2024-01-15T14:32:57;5.90;;;0.80;;
45007;SDS011;30743;52.008;5.644;2024-01-15T14:35:23;3.05;;;0.88;;
45007;SDS011;30743;52.008;5.644;2024-01-15T14:37:48;2.38;;;1.08;;
45007;SDS011;30743;52.008;5.644;2024-01-15T14:40:14;4.00;;;1.17;;
45007;SDS011;30743;52.008;5.644;2024-01-15T14:42:43;4.03;;;1.15;;
45007;SDS011;30743;52.008;5.644;2024-01-15T14:45:09;4.70;;;1.15;;
45007;SDS011;30743;52.008;5.644;2024-01-15T14:47:37;2.90;;;0.95;;
45007;SDS011;30743;52.008;5.644;2024-01-15T14:50:03;3.95;;;1.10;;
45007;SDS011;30743;52.008;5.644;2024-01-15T14:52:30;4.15;;;1.05;;
45007;SDS011;30743;52.008;5.644;2024-01-15T14:54:56;4.05;;;1.00;;